Station: Coldstream  

  Atmospheric Gas Attenuation - ITU Rec 676-11   ----------------- dB/100km -----------------
Date Time Temp RH % AH g/m3 Dew Point Wind Direction Speed kph Gust kph Barometer mB Rainfall Since 9am 24GHz 47GHz 76GHz 122GHz 134GHz 241GHz
08/05 12:30 13.4 87 10.11 11.3 22 41 1023.3 1.2 22.8 28.9 46.8 122.9 120.5 415.6
08/05 12:20 14.3 83 10.2 11.5 15 19 1023.3 1 23.0 28.8 46.6 122.5 120.3 415.2
08/05 12:10 14.3 84 10.32 11.6 19 24 1023.5 1 23.2 29.0 47.1 123.9 122.0 421.1
08/05 12:00 13.9 85 10.19 11.4 19 30 1023.6 1 23.0 28.9 46.8 123.0 120.9 416.9
08/05 11:50 14.1 86 10.44 11.8 20 22 1023.5 1 23.5 29.3 47.8 125.6 124.0 428.1
08/05 11:40 13.9 90 10.79 12.3 17 19 1023.6 1 24.3 30.0 49.4 130.0 129.4 446.7
08/05 11:30 13.4 93 10.81 12.3 17 30 1023.5 1 24.3 30.2 49.8 131.0 130.5 450.6
08/05 11:20 13.4 96 11.16 12.8 11 17 1023.4 1 25.1 30.8 51.4 135.1 135.6 468.3
08/05 11:10 12.9 94 10.6 12 20 28 1023.3 1 23.9 30.0 49.2 129.4 128.3 442.8
08/05 11:00 13.7 92 10.89 12.4 15 26 1023.2 0.8 24.5 30.2 50.0 131.4 131.1 452.7
08/05 10:50 13.8 98 11.68 13.5 13 15 1023.2 0.8 26.2 31.6 53.4 140.6 142.5 492.4
08/05 10:40 12.9 94 10.6 12 15 19 1023.1 0.8 23.9 29.9 49.2 129.4 128.3 442.7
08/05 10:30 13.3 90 10.4 11.7 17 24 1023.2 0.6 23.5 29.5 48.1 126.4 124.8 430.5
08/05 10:20 13.5 88 10.29 11.6 11 15 1022.9 0.4 23.2 29.2 47.5 124.7 122.8 423.8
08/05 10:10 13.4 92 10.7 12.1 19 26 1022.7 0.4 24.1 29.9 49.3 129.6 128.8 444.8
08/05 10:00 13.1 98 11.18 12.8 15 26 1022.9 0.4 25.1 30.9 51.6 135.9 136.4 471.0
08/05 09:50 12.7 99 11.02 12.5 15 17 1022.9 0.4 24.8 30.8 51.2 134.6 134.7 465.2
08/05 09:40 12.4 99 10.82 12.2 17 24 1022.8 0.4 24.4 30.5 50.5 132.8 132.3 456.7
08/05 09:30 12.6 99 10.95 12.4 13 20 1022.8 0.4 24.7 30.7 50.9 134.0 133.9 462.2
08/05 09:20 12.6 99 10.95 12.4 13 15 1022.6 0 24.7 30.7 50.9 133.9 133.8 462.1
08/05 09:10 12.4 99 10.82 12.2 15 17 1022.6 0 24.4 30.5 50.5 132.7 132.3 456.7
08/05 09:00 12.5 97 10.67 12 13 20 1022.8 0 24.1 30.2 49.7 130.8 129.9 448.5
08/05 08:50 12.9 98 11.05 12.6 13 19 1022.6 7.6 24.9 30.7 51.2 134.6 134.8 465.4
08/05 08:40 12.6 99 10.95 12.4 13 19 1022.4 7.6 24.7 30.7 50.9 133.9 133.8 462.1
08/05 08:30 12.3 98 10.64 12 17 30 1022.5 7.6 24.0 30.2 49.7 130.8 129.8 448.0
08/05 08:20 12.3 99 10.75 12.1 13 15 1022.2 7.6 24.3 30.4 50.2 132.0 131.4 453.6
08/05 08:10 12.1 99 10.62 11.9 15 20 1022.1 7.6 24.0 30.2 49.7 130.8 129.8 448.1
08/05 08:00 12.1 98 10.51 11.8 13 19 1022 7.6 23.8 30.0 49.2 129.5 128.2 442.4
08/05 07:50 12.2 99 10.68 12 11 13 1021.7 7.4 24.1 30.3 49.9 131.3 130.5 450.4
08/05 07:40 12.1 99 10.62 11.9 13 17 1021.5 7.4 24.0 30.2 49.7 130.7 129.8 447.8
08/05 07:30 12.1 99 10.62 11.9 13 19 1021.5 7.4 24.0 30.2 49.7 130.7 129.8 447.8
08/05 07:20 12 99 10.55 11.8 15 17 1021.3 7.4 23.9 30.1 49.5 130.1 128.9 444.8
08/05 07:10 12 99 10.55 11.8 15 17 1021.3 7.4 23.9 30.1 49.5 130.1 128.9 444.8
08/05 07:00 11.9 99 10.49 11.7 9 13 1021.2 7.2 23.7 30.0 49.2 129.5 128.2 442.3
08/05 06:50 12 98 10.45 11.7 11 13 1021.2 7 23.6 29.9 49.0 128.9 127.4 439.7
08/05 06:40 12 97 10.34 11.5 11 13 1020.9 7 23.4 29.7 48.5 127.5 125.8 434.0
08/05 06:30 12.1 96 10.3 11.5 13 19 1021 6.8 23.3 29.6 48.3 126.9 125.1 431.4
08/05 06:20 12.2 94 10.14 11.3 19 24 1021 6.8 23.0 29.3 47.5 124.9 122.6 422.8
08/05 06:10 12.4 92 10.05 11.1 11 15 1020.9 6.8 22.8 29.1 47.0 123.5 121.0 417.2
08/05 06:00 12.5 90 9.9 10.9 13 24 1020.8 6.6 22.4 28.8 46.3 121.6 118.7 409.2
08/05 05:50 12.4 92 10.05 11.1 15 19 1020.7 6.6 22.8 29.1 47.0 123.5 121.0 417.1
08/05 05:40 12.4 91 9.94 11 15 19 1020.6 6.6 22.5 28.9 46.5 122.2 119.4 411.6
08/05 05:30 12.4 92 10.05 11.1 11 19 1020.7 6.6 22.8 29.1 47.0 123.5 121.0 417.1
08/05 05:20 12.2 92 9.93 10.9 11 17 1020.6 6.6 22.5 28.9 46.6 122.4 119.6 412.2
08/05 05:10 12.1 92 9.87 10.8 6 7 1020.5 6.6 22.4 28.8 46.4 121.8 118.9 409.7
08/05 05:00 11.9 93 9.85 10.8 2 7 1020.5 6.6 22.4 28.9 46.4 121.9 118.9 409.8
08/05 04:50 12 92 9.81 10.7 0 2 1020.4 6.6 22.3 28.8 46.2 121.3 118.1 407.2
08/05 04:40 12.1 91 9.76 10.7 7 9 1020.4 6.6 22.2 28.6 45.9 120.6 117.3 404.2
08/05 04:30 12.1 91 9.76 10.7 7 11 1020.3 6.4 22.2 28.6 45.9 120.6 117.3 404.2
08/05 04:20 11.9 91 9.64 10.5 7 9 1020.1 6.4 21.9 28.5 45.5 119.5 115.9 399.2
08/05 04:10 11.9 92 9.74 10.6 9 11 1020 6.4 22.1 28.7 45.9 120.6 117.3 404.2
08/05 04:00 11.8 93 9.79 10.7 7 11 1020.1 6.4 22.2 28.8 46.2 121.3 118.1 407.2
08/05 03:50 11.7 93 9.73 10.6 9 11 1020 6.4 22.1 28.7 46.0 120.8 117.4 404.7
08/05 03:40 11.6 93 9.67 10.5 9 13 1020.1 6.4 22.0 28.6 45.8 120.3 116.7 402.3
08/05 03:30 11.6 92 9.56 10.3 9 15 1020.1 6.4 21.8 28.4 45.3 119.0 115.2 396.8
08/05 03:20 11.7 91 9.52 10.3 9 11 1020 6.4 21.7 28.3 45.1 118.4 114.5 394.3
08/05 03:10 11.6 92 9.56 10.3 11 15 1020 6.4 21.8 28.4 45.3 119.0 115.2 396.8
08/05 03:00 11.5 93 9.61 10.4 9 15 1020.2 6.4 21.9 28.6 45.6 119.7 116.1 399.9
08/05 02:50 11.4 93 9.55 10.3 7 9 1020.1 6.4 21.7 28.5 45.4 119.2 115.3 397.4
08/05 02:40 11.3 93 9.49 10.2 7 9 1020.1 6.4 21.6 28.4 45.2 118.7 114.6 394.9
08/05 02:30 11.3 94 9.59 10.4 9 13 1020.3 6.4 21.8 28.6 45.6 119.8 116.1 399.9
08/05 02:20 11.2 95 9.63 10.4 9 11 1020.3 6.4 21.9 28.7 45.8 120.5 116.8 402.4
08/05 02:10 11.1 95 9.57 10.3 11 13 1020.2 6.4 21.8 28.6 45.6 119.9 116.1 399.9
08/05 02:00 11 95 9.51 10.2 9 11 1020.4 6.4 21.7 28.6 45.4 119.4 115.4 397.5
08/05 01:50 10.8 96 9.49 10.2 9 11 1020.4 6.4 21.6 28.6 45.5 119.5 115.4 397.6
08/05 01:40 10.8 96 9.49 10.2 7 9 1020.4 6.4 21.6 28.6 45.5 119.5 115.4 397.6
08/05 01:30 10.6 97 9.47 10.1 6 11 1020.7 6.4 21.6 28.6 45.5 119.6 115.5 397.7
08/05 01:20 10.4 97 9.35 9.9 4 6 1020.7 6.4 21.4 28.5 45.1 118.5 114.1 392.7
08/05 01:10 10.3 98 9.39 10 7 9 1020.7 6.4 21.5 28.6 45.3 119.1 114.8 395.2
08/05 01:00 10.2 99 9.42 10.1 7 13 1020.9 6.4 21.5 28.7 45.5 119.6 115.4 397.3
08/05 00:50 10 99 9.3 9.9 9 11 1020.8 6.4 21.3 28.5 45.1 118.5 113.9 392.3
08/05 00:40 9.8 99 9.19 9.7 7 9 1021 6.4 21.1 28.4 44.8 117.6 112.7 387.8
08/05 00:30 9.7 99 9.13 9.6 6 9 1021.1 6.4 20.9 28.4 44.6 117.0 112.0 385.3
08/05 00:20 9.7 99 9.13 9.6 6 6 1021.1 6.4 20.9 28.4 44.6 117.0 112.0 385.3
08/05 00:10 9.6 99 9.07 9.5 7 7 1021.1 6.4 20.8 28.3 44.4 116.5 111.3 382.8
08/05 00:00 9.6 99 9.07 9.5 7 13 1021.4 6.4 20.8 28.3 44.4 116.5 111.3 382.9
07/05 23:50 9.5 99 9.01 9.4 7 11 1021.4 6.4 20.7 28.2 44.2 116.0 110.6 380.4
07/05 23:40 9.5 99 9.01 9.4 7 11 1021.5 6.4 20.7 28.2 44.2 116.0 110.6 380.4
07/05 23:30 9.4 99 8.96 9.3 6 9 1021.7 6.4 20.6 28.2 44.0 115.6 110.0 378.5
07/05 23:20 9.5 99 9.01 9.4 0 0 1021.9 6.4 20.7 28.2 44.2 116.0 110.6 380.6
07/05 23:10 9.4 99 8.96 9.3 7 9 1022.1 6.2 20.6 28.2 44.1 115.6 110.1 378.6
07/05 23:00 9.5 99 9.01 9.4 7 11 1022.1 6.2 20.7 28.2 44.2 116.1 110.6 380.6
07/05 22:50 9.4 99 8.96 9.3 7 7 1022.1 5.8 20.6 28.2 44.1 115.6 110.1 378.6
07/05 22:40 9.3 99 8.9 9.2 7 7 1022.2 5.8 20.4 28.1 43.9 115.1 109.4 376.1
07/05 22:30 9.2 99 8.84 9.1 6 9 1022.4 5.8 20.3 28.1 43.7 114.6 108.7 373.7
07/05 22:20 9.2 99 8.84 9.1 9 11 1022.3 5.8 20.3 28.1 43.7 114.6 108.7 373.6
07/05 22:10 9.1 99 8.79 9 6 7 1022.4 5.8 20.2 28.0 43.5 114.1 108.1 371.7
07/05 22:00 9 99 8.73 8.9 7 11 1022.5 5.8 20.1 27.9 43.3 113.6 107.4 369.2
07/05 21:50 9 99 8.73 8.9 7 9 1022.4 5.8 20.1 27.9 43.3 113.6 107.4 369.1
07/05 21:40 8.9 99 8.68 8.8 9 9 1022.5 5.8 20.0 27.9 43.1 113.2 106.8 367.2
07/05 21:30 8.9 99 8.68 8.8 6 9 1022.5 5.8 20.0 27.9 43.1 113.2 106.8 367.2
07/05 21:20 8.9 99 8.68 8.8 7 7 1022.4 5.8 20.0 27.9 43.1 113.2 106.8 367.1
07/05 21:10 8.9 99 8.68 8.8 9 11 1022.4 5.8 20.0 27.9 43.1 113.2 106.8 367.1
07/05 21:00 8.9 99 8.68 8.8 7 11 1022.6 5.8 20.0 27.9 43.1 113.2 106.8 367.2
07/05 20:50 9 97 8.55 8.5 7 9 1022.7 5.6 19.7 27.6 42.5 111.5 104.8 360.3
07/05 20:40 9.1 95 8.43 8.3 9 11 1022.8 5.6 19.4 27.4 42.0 110.0 103.0 353.9
07/05 20:30 9.3 92 8.27 8.1 13 22 1023 5.4 19.1 27.1 41.2 108.0 100.5 345.2
07/05 20:20 9.3 91 8.18 7.9 7 9 1022.9 5.2 18.9 26.9 40.8 106.9 99.3 340.8
07/05 20:10 9.3 92 8.27 8.1 7 9 1022.7 5.2 19.1 27.1 41.2 107.9 100.5 345.1
07/05 20:00 9.2 93 8.31 8.1 6 9 1022.8 5.2 19.2 27.2 41.4 108.5 101.2 347.5

Last Refresh: 08-May-2026 12:07:31

Bureau of Meteorology